Impacts METAR Board INFO
IDs:

KDEN - Denver Intl, CO, US

Updated at: 2238 UTC 21 Nov 2017
Potential Impact None Slight Moderate High
Time21/10Z 21/11Z 21/12Z 21/13Z 21/14Z 21/15Z 21/16Z 21/17Z 21/18Z 21/19Z 21/20Z 21/21Z 21/22Z
VIS10 10 10 10 10 10 7 10 8 10 10 10 10
CIG200 200 90 42 60 30 25 60 26 30 35 35 --
CoverBKNBKNBKNOVCBKNOVCOVCOVCOVCOVCOVCBKNSCT
FltCatVFRVFRVFRVFRVFRMVFRMVFRVFRMVFRMVFRVFRVFRVFR
WX-------RA-RA---SN------------
WDir2802902803102030801000360000
WSpd9 9 5 17 19 19 13 9 0 4 0 3 0
WGst-- -- -- 24 27 23 -- -- -- -- -- -- --
Raw hourly METARs
KDEN 210953Z 28009KT 10SM SCT120 BKN200 10/M07 A2999 RMK AO2 SLP100 T01001067
KDEN 211053Z 29009KT 10SM SCT110 BKN200 10/M06 A3001 RMK AO2 SLP119 T01001061
KDEN 211153Z 28005KT 10SM BKN090 BKN110 BKN200 11/M05 A3005 RMK AO2 SLP130 T01061050 10139 20094 53024
KDEN 211253Z 31017G24KT 10SM -RA BKN042 BKN070 OVC090 09/01 A3010 RMK AO2 PK WND 34030/1231 RAB21 SLP159 P0001 T00890011
KDEN 211353Z 02019G27KT 10SM -RA SCT047 BKN060 BKN090 BKN220 07/02 A3014 RMK AO2 PK WND 03027/1347 SLP184 P0001 T00720017
KDEN 211453Z 03019G23KT 10SM BKN030 BKN055 OVC090 06/02 A3022 RMK AO2 PK WND 02026/1355 RAE26 PRESRR SLP204 P0000 60002 T00610022 53050
KDEN 211553Z 08013KT 7SM -SN BKN025 BKN048 OVC060 01/M02 A3029 RMK AO2 RAB1454E51SNB16 SLP237 P0000 T00111022
KDEN 211653Z 10009KT 10SM FEW025 SCT045 OVC060 02/M01 A3031 RMK AO2 SNE27 SLP240 P0000 T00221011
KDEN 211753Z 00000KT 8SM BKN026 OVC060 03/M01 A3033 RMK AO2 SLP248 60002 T00281011 10100 20006 51033
KDEN 211853Z 36004KT 10SM BKN030 OVC060 04/M01 A3033 RMK AO2 SLP249 T00441006
KDEN 211953Z 00000KT 10SM SCT015 BKN035 OVC060 06/M01 A3032 RMK AO2 SLP240 T00561006
KDEN 212053Z VRB03KT 10SM BKN035 BKN060 06/00 A3031 RMK AO2 SLP236 T00560000 58008
KDEN 212153Z 00000KT 10SM FEW035 SCT060 SCT120 06/M01 A3031 RMK AO2 SLP240 T00611011